sensor_id;sensor_type;location;lat;lon;timestamp;P1;P2;P0
78063;PMS5003;67429;51.596;-3.264;2023-09-18T00:01:52;29;29;
78063;PMS5003;67429;51.596;-3.264;2023-09-18T00:04:17;27;27;
78063;PMS5003;67429;51.596;-3.264;2023-09-18T00:06:43;28;28;
78063;PMS5003;67429;51.596;-3.264;2023-09-18T00:09:08;29;29;
78063;PMS5003;67429;51.596;-3.264;2023-09-18T00:11:35;24;23;
78063;PMS5003;67429;51.596;-3.264;2023-09-18T00:14:01;28;28;
78063;PMS5003;67429;51.596;-3.264;2023-09-18T00:16:27;31;31;
78063;PMS5003;67429;51.596;-3.264;2023-09-18T00:18:52;36;34;
78063;PMS5003;67429;51.596;-3.264;2023-09-18T00:21:18;31;29;
78063;PMS5003;67429;51.596;-3.264;2023-09-18T00:23:44;30;29;
78063;PMS5003;67429;51.596;-3.264;2023-09-18T00:26:09;31;31;
78063;PMS5003;67429;51.596;-3.264;2023-09-18T00:28:34;30;29;
78063;PMS5003;67429;51.596;-3.264;2023-09-18T00:30:59;29;29;
78063;PMS5003;67429;51.596;-3.264;2023-09-18T00:33:25;29;28;
78063;PMS5003;67429;51.596;-3.264;2023-09-18T00:35:50;32;32;
78063;PMS5003;67429;51.596;-3.264;2023-09-18T00:38:16;28;28;
78063;PMS5003;67429;51.596;-3.264;2023-09-18T00:40:41;30;28;
78063;PMS5003;67429;51.596;-3.264;2023-09-18T00:43:06;28;26;
78063;PMS5003;67429;51.596;-3.264;2023-09-18T00:45:31;32;30;
78063;PMS5003;67429;51.596;-3.264;2023-09-18T00:47:56;34;33;
78063;PMS5003;67429;51.596;-3.264;2023-09-18T00:50:22;30;28;
78063;PMS5003;67429;51.596;-3.264;2023-09-18T00:52:47;28;28;
78063;PMS5003;67429;51.596;-3.264;2023-09-18T00:55:12;29;29;
78063;PMS5003;67429;51.596;-3.264;2023-09-18T00:57:37;29;28;
78063;PMS5003;67429;51.596;-3.264;2023-09-18T01:00:04;27;27;
78063;PMS5003;67429;51.596;-3.264;2023-09-18T01:02:29;28;28;
78063;PMS5003;67429;51.596;-3.264;2023-09-18T01:04:54;30;30;
78063;PMS5003;67429;51.596;-3.264;2023-09-18T01:07:20;32;31;
78063;PMS5003;67429;51.596;-3.264;2023-09-18T01:09:45;32;32;
78063;PMS5003;67429;51.596;-3.264;2023-09-18T01:12:13;35;34;
78063;PMS5003;67429;51.596;-3.264;2023-09-18T01:14:37;30;29;
78063;PMS5003;67429;51.596;-3.264;2023-09-18T01:17:00;31;30;
78063;PMS5003;67429;51.596;-3.264;2023-09-18T01:21:50;31;31;
78063;PMS5003;67429;51.596;-3.264;2023-09-18T01:24:16;28;26;
78063;PMS5003;67429;51.596;-3.264;2023-09-18T01:26:41;33;33;
78063;PMS5003;67429;51.596;-3.264;2023-09-18T01:29:07;33;32;
78063;PMS5003;67429;51.596;-3.264;2023-09-18T01:31:32;37;34;
78063;PMS5003;67429;51.596;-3.264;2023-09-18T01:33:58;39;37;
78063;PMS5003;67429;51.596;-3.264;2023-09-18T01:36:23;34;34;
78063;PMS5003;67429;51.596;-3.264;2023-09-18T01:38:50;43;42;
78063;PMS5003;67429;51.596;-3.264;2023-09-18T01:41:16;35;34;
78063;PMS5003;67429;51.596;-3.264;2023-09-18T01:43:40;34;34;
78063;PMS5003;67429;51.596;-3.264;2023-09-18T01:46:05;32;31;
78063;PMS5003;67429;51.596;-3.264;2023-09-18T01:48:31;29;29;
78063;PMS5003;67429;51.596;-3.264;2023-09-18T01:50:57;33;33;
78063;PMS5003;67429;51.596;-3.264;2023-09-18T01:53:23;29;27;
78063;PMS5003;67429;51.596;-3.264;2023-09-18T01:55:48;31;30;
78063;PMS5003;67429;51.596;-3.264;2023-09-18T01:58:14;29;27;
78063;PMS5003;67429;51.596;-3.264;2023-09-18T02:00:39;30;29;
78063;PMS5003;67429;51.596;-3.264;2023-09-18T02:03:04;30;30;
78063;PMS5003;67429;51.596;-3.264;2023-09-18T02:05:30;31;30;
78063;PMS5003;67429;51.596;-3.264;2023-09-18T02:07:56;25;25;
78063;PMS5003;67429;51.596;-3.264;2023-09-18T02:10:23;33;31;
78063;PMS5003;67429;51.596;-3.264;2023-09-18T02:12:47;30;30;
78063;PMS5003;67429;51.596;-3.264;2023-09-18T02:15:14;27;26;
78063;PMS5003;67429;51.596;-3.264;2023-09-18T02:17:38;24;24;
78063;PMS5003;67429;51.596;-3.264;2023-09-18T02:20:04;21;21;
78063;PMS5003;67429;51.596;-3.264;2023-09-18T02:22:30;22;21;
78063;PMS5003;67429;51.596;-3.264;2023-09-18T02:24:54;19;18;
78063;PMS5003;67429;51.596;-3.264;2023-09-18T02:27:19;14;14;
78063;PMS5003;67429;51.596;-3.264;2023-09-18T02:29:45;15;15;
78063;PMS5003;67429;51.596;-3.264;2023-09-18T02:32:10;14;14;
78063;PMS5003;67429;51.596;-3.264;2023-09-18T02:34:36;10;10;
78063;PMS5003;67429;51.596;-3.264;2023-09-18T02:37:02;12;11;
78063;PMS5003;67429;51.596;-3.264;2023-09-18T02:39:27;14;14;
78063;PMS5003;67429;51.596;-3.264;2023-09-18T02:41:52;16;16;
78063;PMS5003;67429;51.596;-3.264;2023-09-18T02:44:18;14;14;
78063;PMS5003;67429;51.596;-3.264;2023-09-18T02:46:43;11;11;
78063;PMS5003;67429;51.596;-3.264;2023-09-18T02:49:09;9;9;
78063;PMS5003;67429;51.596;-3.264;2023-09-18T02:51:35;9;8;
78063;PMS5003;67429;51.596;-3.264;2023-09-18T02:54:00;10;10;
78063;PMS5003;67429;51.596;-3.264;2023-09-18T02:56:26;7;7;
78063;PMS5003;67429;51.596;-3.264;2023-09-18T02:58:51;11;11;
78063;PMS5003;67429;51.596;-3.264;2023-09-18T03:01:17;10;10;
78063;PMS5003;67429;51.596;-3.264;2023-09-18T03:03:42;12;11;
78063;PMS5003;67429;51.596;-3.264;2023-09-18T03:06:08;11;11;
78063;PMS5003;67429;51.596;-3.264;2023-09-18T03:08:33;8;8;
78063;PMS5003;67429;51.596;-3.264;2023-09-18T03:10:59;9;9;
78063;PMS5003;67429;51.596;-3.264;2023-09-18T03:13:25;8;8;
78063;PMS5003;67429;51.596;-3.264;2023-09-18T03:15:49;7;7;
78063;PMS5003;67429;51.596;-3.264;2023-09-18T03:18:15;7;7;
78063;PMS5003;67429;51.596;-3.264;2023-09-18T03:20:41;5;5;
78063;PMS5003;67429;51.596;-3.264;2023-09-18T03:23:06;7;7;
78063;PMS5003;67429;51.596;-3.264;2023-09-18T03:25:32;6;6;
78063;PMS5003;67429;51.596;-3.264;2023-09-18T03:27:57;5;4;
78063;PMS5003;67429;51.596;-3.264;2023-09-18T03:30:23;6;5;
78063;PMS5003;67429;51.596;-3.264;2023-09-18T03:32:48;6;5;
78063;PMS5003;67429;51.596;-3.264;2023-09-18T03:35:14;6;6;
78063;PMS5003;67429;51.596;-3.264;2023-09-18T03:37:41;6;6;
78063;PMS5003;67429;51.596;-3.264;2023-09-18T03:40:05;9;8;
78063;PMS5003;67429;51.596;-3.264;2023-09-18T03:42:31;5;5;
78063;PMS5003;67429;51.596;-3.264;2023-09-18T03:44:57;6;6;
78063;PMS5003;67429;51.596;-3.264;2023-09-18T03:47:21;7;6;
78063;PMS5003;67429;51.596;-3.264;2023-09-18T03:49:47;6;6;
78063;PMS5003;67429;51.596;-3.264;2023-09-18T03:52:12;5;5;
78063;PMS5003;67429;51.596;-3.264;2023-09-18T03:54:38;7;7;
78063;PMS5003;67429;51.596;-3.264;2023-09-18T03:57:03;5;5;
78063;PMS5003;67429;51.596;-3.264;2023-09-18T03:59:31;6;6;
78063;PMS5003;67429;51.596;-3.264;2023-09-18T04:01:54;5;5;
78063;PMS5003;67429;51.596;-3.264;2023-09-18T04:04:20;4;4;
78063;PMS5003;67429;51.596;-3.264;2023-09-18T04:06:45;5;5;
78063;PMS5003;67429;51.596;-3.264;2023-09-18T04:09:10;5;5;
78063;PMS5003;67429;51.596;-3.264;2023-09-18T04:11:36;5;5;
78063;PMS5003;67429;51.596;-3.264;2023-09-18T04:14:03;4;4;
78063;PMS5003;67429;51.596;-3.264;2023-09-18T04:16:27;5;5;
78063;PMS5003;67429;51.596;-3.264;2023-09-18T04:18:53;4;4;
78063;PMS5003;67429;51.596;-3.264;2023-09-18T04:21:18;4;4;
78063;PMS5003;67429;51.596;-3.264;2023-09-18T04:23:44;3;3;
78063;PMS5003;67429;51.596;-3.264;2023-09-18T04:26:09;4;4;
78063;PMS5003;67429;51.596;-3.264;2023-09-18T04:28:35;7;6;
78063;PMS5003;67429;51.596;-3.264;2023-09-18T04:31:00;4;4;
78063;PMS5003;67429;51.596;-3.264;2023-09-18T04:33:26;6;6;
78063;PMS5003;67429;51.596;-3.264;2023-09-18T04:35:51;3;3;
78063;PMS5003;67429;51.596;-3.264;2023-09-18T04:38:17;4;4;
78063;PMS5003;67429;51.596;-3.264;2023-09-18T04:40:42;3;3;
78063;PMS5003;67429;51.596;-3.264;2023-09-18T04:43:08;4;3;
78063;PMS5003;67429;51.596;-3.264;2023-09-18T04:45:33;4;4;
78063;PMS5003;67429;51.596;-3.264;2023-09-18T04:47:59;3;3;
78063;PMS5003;67429;51.596;-3.264;2023-09-18T04:50:24;4;4;
78063;PMS5003;67429;51.596;-3.264;2023-09-18T04:52:50;4;3;
78063;PMS5003;67429;51.596;-3.264;2023-09-18T04:55:17;6;6;
78063;PMS5003;67429;51.596;-3.264;2023-09-18T04:57:41;8;8;
78063;PMS5003;67429;51.596;-3.264;2023-09-18T05:00:07;8;8;
78063;PMS5003;67429;51.596;-3.264;2023-09-18T05:02:32;6;6;
78063;PMS5003;67429;51.596;-3.264;2023-09-18T05:04:58;7;7;
78063;PMS5003;67429;51.596;-3.264;2023-09-18T05:07:23;6;6;
78063;PMS5003;67429;51.596;-3.264;2023-09-18T05:09:50;5;5;
78063;PMS5003;67429;51.596;-3.264;2023-09-18T05:12:14;4;4;
78063;PMS5003;67429;51.596;-3.264;2023-09-18T05:14:40;7;7;
78063;PMS5003;67429;51.596;-3.264;2023-09-18T05:17:05;6;6;
78063;PMS5003;67429;51.596;-3.264;2023-09-18T05:19:31;4;4;
78063;PMS5003;67429;51.596;-3.264;2023-09-18T05:21:56;6;5;
78063;PMS5003;67429;51.596;-3.264;2023-09-18T05:24:22;3;3;
78063;PMS5003;67429;51.596;-3.264;2023-09-18T05:26:47;3;3;
78063;PMS5003;67429;51.596;-3.264;2023-09-18T05:29:13;5;5;
78063;PMS5003;67429;51.596;-3.264;2023-09-18T05:31:38;4;4;
78063;PMS5003;67429;51.596;-3.264;2023-09-18T05:34:04;3;3;
78063;PMS5003;67429;51.596;-3.264;2023-09-18T05:36:30;2;2;
78063;PMS5003;67429;51.596;-3.264;2023-09-18T05:38:55;4;4;
78063;PMS5003;67429;51.596;-3.264;2023-09-18T05:41:21;5;5;
78063;PMS5003;67429;51.596;-3.264;2023-09-18T05:43:48;6;5;
78063;PMS5003;67429;51.596;-3.264;2023-09-18T05:46:12;4;4;
78063;PMS5003;67429;51.596;-3.264;2023-09-18T05:48:37;4;4;
78063;PMS5003;67429;51.596;-3.264;2023-09-18T05:51:03;4;4;
78063;PMS5003;67429;51.596;-3.264;2023-09-18T05:53:29;4;4;
78063;PMS5003;67429;51.596;-3.264;2023-09-18T05:55:55;4;4;
78063;PMS5003;67429;51.596;-3.264;2023-09-18T05:58:19;4;4;
78063;PMS5003;67429;51.596;-3.264;2023-09-18T06:00:45;4;4;
78063;PMS5003;67429;51.596;-3.264;2023-09-18T06:03:11;4;4;
78063;PMS5003;67429;51.596;-3.264;2023-09-18T06:05:36;4;4;
78063;PMS5003;67429;51.596;-3.264;2023-09-18T06:08:02;3;3;
78063;PMS5003;67429;51.596;-3.264;2023-09-18T06:10:27;4;4;
78063;PMS5003;67429;51.596;-3.264;2023-09-18T06:12:53;4;4;
78063;PMS5003;67429;51.596;-3.264;2023-09-18T06:15:18;4;4;
78063;PMS5003;67429;51.596;-3.264;2023-09-18T06:17:44;6;5;
78063;PMS5003;67429;51.596;-3.264;2023-09-18T06:20:10;4;4;
78063;PMS5003;67429;51.596;-3.264;2023-09-18T06:22:35;7;5;
78063;PMS5003;67429;51.596;-3.264;2023-09-18T06:25:01;4;4;
78063;PMS5003;67429;51.596;-3.264;2023-09-18T06:27:27;4;4;
78063;PMS5003;67429;51.596;-3.264;2023-09-18T06:29:52;3;3;
78063;PMS5003;67429;51.596;-3.264;2023-09-18T06:32:19;4;4;
78063;PMS5003;67429;51.596;-3.264;2023-09-18T06:34:43;5;4;
78063;PMS5003;67429;51.596;-3.264;2023-09-18T06:37:08;4;3;
78063;PMS5003;67429;51.596;-3.264;2023-09-18T06:39:34;7;7;
78063;PMS5003;67429;51.596;-3.264;2023-09-18T06:41:59;5;5;
78063;PMS5003;67429;51.596;-3.264;2023-09-18T06:44:25;5;5;
78063;PMS5003;67429;51.596;-3.264;2023-09-18T06:46:52;8;7;
78063;PMS5003;67429;51.596;-3.264;2023-09-18T06:49:16;8;7;
78063;PMS5003;67429;51.596;-3.264;2023-09-18T06:51:41;6;6;
78063;PMS5003;67429;51.596;-3.264;2023-09-18T06:54:07;5;5;
78063;PMS5003;67429;51.596;-3.264;2023-09-18T06:56:32;6;6;
78063;PMS5003;67429;51.596;-3.264;2023-09-18T06:59:00;8;7;
78063;PMS5003;67429;51.596;-3.264;2023-09-18T07:01:23;7;6;
78063;PMS5003;67429;51.596;-3.264;2023-09-18T07:03:49;7;7;
78063;PMS5003;67429;51.596;-3.264;2023-09-18T07:06:14;8;7;
78063;PMS5003;67429;51.596;-3.264;2023-09-18T07:08:40;5;5;
78063;PMS5003;67429;51.596;-3.264;2023-09-18T07:11:06;5;5;
78063;PMS5003;67429;51.596;-3.264;2023-09-18T07:13:31;5;5;
78063;PMS5003;67429;51.596;-3.264;2023-09-18T07:15:56;6;5;
78063;PMS5003;67429;51.596;-3.264;2023-09-18T07:18:22;5;5;
78063;PMS5003;67429;51.596;-3.264;2023-09-18T07:20:47;4;4;
78063;PMS5003;67429;51.596;-3.264;2023-09-18T07:23:13;5;5;
78063;PMS5003;67429;51.596;-3.264;2023-09-18T07:25:39;5;5;
78063;PMS5003;67429;51.596;-3.264;2023-09-18T07:28:06;11;11;
78063;PMS5003;67429;51.596;-3.264;2023-09-18T07:30:30;10;9;
78063;PMS5003;67429;51.596;-3.264;2023-09-18T07:32:55;8;8;
78063;PMS5003;67429;51.596;-3.264;2023-09-18T07:35:22;5;5;
78063;PMS5003;67429;51.596;-3.264;2023-09-18T07:37:46;5;5;
78063;PMS5003;67429;51.596;-3.264;2023-09-18T07:40:12;8;7;
78063;PMS5003;67429;51.596;-3.264;2023-09-18T07:42:37;3;3;
78063;PMS5003;67429;51.596;-3.264;2023-09-18T07:45:04;7;7;
78063;PMS5003;67429;51.596;-3.264;2023-09-18T07:47:28;9;8;
78063;PMS5003;67429;51.596;-3.264;2023-09-18T07:49:55;8;8;
78063;PMS5003;67429;51.596;-3.264;2023-09-18T07:52:20;8;8;
78063;PMS5003;67429;51.596;-3.264;2023-09-18T07:54:47;9;9;
78063;PMS5003;67429;51.596;-3.264;2023-09-18T07:57:10;6;6;
78063;PMS5003;67429;51.596;-3.264;2023-09-18T07:59:36;5;5;
78063;PMS5003;67429;51.596;-3.264;2023-09-18T08:02:02;6;6;
78063;PMS5003;67429;51.596;-3.264;2023-09-18T08:04:27;7;7;
78063;PMS5003;67429;51.596;-3.264;2023-09-18T08:06:52;12;12;
78063;PMS5003;67429;51.596;-3.264;2023-09-18T08:09:17;10;10;
78063;PMS5003;67429;51.596;-3.264;2023-09-18T08:11:43;10;10;
78063;PMS5003;67429;51.596;-3.264;2023-09-18T08:14:13;9;9;
78063;PMS5003;67429;51.596;-3.264;2023-09-18T08:16:34;10;10;
78063;PMS5003;67429;51.596;-3.264;2023-09-18T08:19:00;12;11;
78063;PMS5003;67429;51.596;-3.264;2023-09-18T08:21:25;9;9;
78063;PMS5003;67429;51.596;-3.264;2023-09-18T08:23:50;10;10;
78063;PMS5003;67429;51.596;-3.264;2023-09-18T08:26:16;9;9;
78063;PMS5003;67429;51.596;-3.264;2023-09-18T08:28:43;12;11;
78063;PMS5003;67429;51.596;-3.264;2023-09-18T08:31:07;8;8;
78063;PMS5003;67429;51.596;-3.264;2023-09-18T08:33:32;10;10;
78063;PMS5003;67429;51.596;-3.264;2023-09-18T08:35:58;8;8;
78063;PMS5003;67429;51.596;-3.264;2023-09-18T08:38:25;8;8;
78063;PMS5003;67429;51.596;-3.264;2023-09-18T08:40:49;7;7;
78063;PMS5003;67429;51.596;-3.264;2023-09-18T08:43:15;7;7;
78063;PMS5003;67429;51.596;-3.264;2023-09-18T08:45:43;7;7;
78063;PMS5003;67429;51.596;-3.264;2023-09-18T08:48:06;10;10;
78063;PMS5003;67429;51.596;-3.264;2023-09-18T08:50:31;8;7;
78063;PMS5003;67429;51.596;-3.264;2023-09-18T08:52:56;6;6;
78063;PMS5003;67429;51.596;-3.264;2023-09-18T08:55:22;9;9;
78063;PMS5003;67429;51.596;-3.264;2023-09-18T08:57:48;7;6;
78063;PMS5003;67429;51.596;-3.264;2023-09-18T09:00:14;5;5;
78063;PMS5003;67429;51.596;-3.264;2023-09-18T09:02:38;8;8;
78063;PMS5003;67429;51.596;-3.264;2023-09-18T09:05:05;6;6;
78063;PMS5003;67429;51.596;-3.264;2023-09-18T09:07:30;7;7;
78063;PMS5003;67429;51.596;-3.264;2023-09-18T09:09:54;6;6;
78063;PMS5003;67429;51.596;-3.264;2023-09-18T09:17:11;5;5;
78063;PMS5003;67429;51.596;-3.264;2023-09-18T09:19:36;6;6;
78063;PMS5003;67429;51.596;-3.264;2023-09-18T09:22:02;6;6;
78063;PMS5003;67429;51.596;-3.264;2023-09-18T09:24:36;7;7;
78063;PMS5003;67429;51.596;-3.264;2023-09-18T09:29:19;5;5;
78063;PMS5003;67429;51.596;-3.264;2023-09-18T09:31:44;9;8;
78063;PMS5003;67429;51.596;-3.264;2023-09-18T09:34:09;7;7;
78063;PMS5003;67429;51.596;-3.264;2023-09-18T09:36:35;5;5;
78063;PMS5003;67429;51.596;-3.264;2023-09-18T09:39:01;6;5;
78063;PMS5003;67429;51.596;-3.264;2023-09-18T09:41:26;7;7;
78063;PMS5003;67429;51.596;-3.264;2023-09-18T09:43:51;5;5;
78063;PMS5003;67429;51.596;-3.264;2023-09-18T09:46:17;2;2;
78063;PMS5003;67429;51.596;-3.264;2023-09-18T09:51:08;5;5;
78063;PMS5003;67429;51.596;-3.264;2023-09-18T09:53:42;4;4;
78063;PMS5003;67429;51.596;-3.264;2023-09-18T09:55:59;3;3;
78063;PMS5003;67429;51.596;-3.264;2023-09-18T09:58:26;2;2;
78063;PMS5003;67429;51.596;-3.264;2023-09-18T10:00:51;2;2;
78063;PMS5003;67429;51.596;-3.264;2023-09-18T10:03:16;3;3;
78063;PMS5003;67429;51.596;-3.264;2023-09-18T10:05:41;1;1;
78063;PMS5003;67429;51.596;-3.264;2023-09-18T10:08:07;2;2;
78063;PMS5003;67429;51.596;-3.264;2023-09-18T10:10:34;2;2;
78063;PMS5003;67429;51.596;-3.264;2023-09-18T10:12:57;3;3;
78063;PMS5003;67429;51.596;-3.264;2023-09-18T10:15:22;1;1;
78063;PMS5003;67429;51.596;-3.264;2023-09-18T10:17:48;1;1;
78063;PMS5003;67429;51.596;-3.264;2023-09-18T10:20:13;2;2;
78063;PMS5003;67429;51.596;-3.264;2023-09-18T10:22:39;1;1;
78063;PMS5003;67429;51.596;-3.264;2023-09-18T10:25:07;2;2;
78063;PMS5003;67429;51.596;-3.264;2023-09-18T10:27:30;2;2;
78063;PMS5003;67429;51.596;-3.264;2023-09-18T10:29:55;3;3;
78063;PMS5003;67429;51.596;-3.264;2023-09-18T10:32:21;3;3;
78063;PMS5003;67429;51.596;-3.264;2023-09-18T10:34:47;1;1;
78063;PMS5003;67429;51.596;-3.264;2023-09-18T10:37:12;3;3;
78063;PMS5003;67429;51.596;-3.264;2023-09-18T10:39:39;2;2;
78063;PMS5003;67429;51.596;-3.264;2023-09-18T10:42:04;2;2;
78063;PMS5003;67429;51.596;-3.264;2023-09-18T10:44:30;2;2;
78063;PMS5003;67429;51.596;-3.264;2023-09-18T10:46:54;2;2;
78063;PMS5003;67429;51.596;-3.264;2023-09-18T10:49:20;2;2;
78063;PMS5003;67429;51.596;-3.264;2023-09-18T10:51:46;3;3;
78063;PMS5003;67429;51.596;-3.264;2023-09-18T10:54:11;1;1;
78063;PMS5003;67429;51.596;-3.264;2023-09-18T10:56:36;2;2;
78063;PMS5003;67429;51.596;-3.264;2023-09-18T10:59:05;2;2;
78063;PMS5003;67429;51.596;-3.264;2023-09-18T11:01:27;2;2;
78063;PMS5003;67429;51.596;-3.264;2023-09-18T11:03:57;2;2;
78063;PMS5003;67429;51.596;-3.264;2023-09-18T11:06:18;2;2;
78063;PMS5003;67429;51.596;-3.264;2023-09-18T11:08:43;3;2;
78063;PMS5003;67429;51.596;-3.264;2023-09-18T11:11:09;4;4;
78063;PMS5003;67429;51.596;-3.264;2023-09-18T11:13:34;2;2;
78063;PMS5003;67429;51.596;-3.264;2023-09-18T11:16:00;2;2;
78063;PMS5003;67429;51.596;-3.264;2023-09-18T11:18:25;2;2;
78063;PMS5003;67429;51.596;-3.264;2023-09-18T11:23:17;2;2;
78063;PMS5003;67429;51.596;-3.264;2023-09-18T11:25:41;2;2;
78063;PMS5003;67429;51.596;-3.264;2023-09-18T11:28:07;3;3;
78063;PMS5003;67429;51.596;-3.264;2023-09-18T11:30:32;2;2;
78063;PMS5003;67429;51.596;-3.264;2023-09-18T11:32:58;1;1;
78063;PMS5003;67429;51.596;-3.264;2023-09-18T11:35:23;2;2;
78063;PMS5003;67429;51.596;-3.264;2023-09-18T11:42:40;0;0;
78063;PMS5003;67429;51.596;-3.264;2023-09-18T11:45:05;1;1;
78063;PMS5003;67429;51.596;-3.264;2023-09-18T11:47:31;2;2;
78063;PMS5003;67429;51.596;-3.264;2023-09-18T11:49:57;2;2;
78063;PMS5003;67429;51.596;-3.264;2023-09-18T11:52:22;2;2;
78063;PMS5003;67429;51.596;-3.264;2023-09-18T11:54:47;2;2;
78063;PMS5003;67429;51.596;-3.264;2023-09-18T11:57:13;2;2;
78063;PMS5003;67429;51.596;-3.264;2023-09-18T11:59:41;7;6;
78063;PMS5003;67429;51.596;-3.264;2023-09-18T12:02:04;16;16;
78063;PMS5003;67429;51.596;-3.264;2023-09-18T12:04:29;16;16;
78063;PMS5003;67429;51.596;-3.264;2023-09-18T12:06:54;11;11;
78063;PMS5003;67429;51.596;-3.264;2023-09-18T12:09:20;3;3;
78063;PMS5003;67429;51.596;-3.264;2023-09-18T12:11:45;1;1;
78063;PMS5003;67429;51.596;-3.264;2023-09-18T12:14:11;1;1;
78063;PMS5003;67429;51.596;-3.264;2023-09-18T12:16:37;1;1;
78063;PMS5003;67429;51.596;-3.264;2023-09-18T12:19:02;2;2;
78063;PMS5003;67429;51.596;-3.264;2023-09-18T12:21:27;1;1;
78063;PMS5003;67429;51.596;-3.264;2023-09-18T12:23:53;0;0;
78063;PMS5003;67429;51.596;-3.264;2023-09-18T12:26:18;0;0;
78063;PMS5003;67429;51.596;-3.264;2023-09-18T12:28:44;0;0;
78063;PMS5003;67429;51.596;-3.264;2023-09-18T12:31:10;0;0;
78063;PMS5003;67429;51.596;-3.264;2023-09-18T12:33:35;0;0;
78063;PMS5003;67429;51.596;-3.264;2023-09-18T12:36:00;0;0;
78063;PMS5003;67429;51.596;-3.264;2023-09-18T12:38:25;0;0;
78063;PMS5003;67429;51.596;-3.264;2023-09-18T12:40:51;0;0;
78063;PMS5003;67429;51.596;-3.264;2023-09-18T12:43:17;0;0;
78063;PMS5003;67429;51.596;-3.264;2023-09-18T12:45:44;0;0;
78063;PMS5003;67429;51.596;-3.264;2023-09-18T12:48:07;0;0;
78063;PMS5003;67429;51.596;-3.264;2023-09-18T12:50:33;1;0;
78063;PMS5003;67429;51.596;-3.264;2023-09-18T12:55:25;1;1;
78063;PMS5003;67429;51.596;-3.264;2023-09-18T12:57:50;0;0;
78063;PMS5003;67429;51.596;-3.264;2023-09-18T13:00:16;1;1;
78063;PMS5003;67429;51.596;-3.264;2023-09-18T13:02:44;0;0;
78063;PMS5003;67429;51.596;-3.264;2023-09-18T13:05:06;1;1;
78063;PMS5003;67429;51.596;-3.264;2023-09-18T13:07:32;0;0;
78063;PMS5003;67429;51.596;-3.264;2023-09-18T13:09:58;0;0;
78063;PMS5003;67429;51.596;-3.264;2023-09-18T13:12:22;0;0;
78063;PMS5003;67429;51.596;-3.264;2023-09-18T13:17:14;1;1;
78063;PMS5003;67429;51.596;-3.264;2023-09-18T13:19:39;0;0;
78063;PMS5003;67429;51.596;-3.264;2023-09-18T13:22:04;1;1;
78063;PMS5003;67429;51.596;-3.264;2023-09-18T13:24:30;2;2;
78063;PMS5003;67429;51.596;-3.264;2023-09-18T13:26:56;1;1;
78063;PMS5003;67429;51.596;-3.264;2023-09-18T13:29:21;2;1;
78063;PMS5003;67429;51.596;-3.264;2023-09-18T13:31:46;2;1;
78063;PMS5003;67429;51.596;-3.264;2023-09-18T13:34:12;1;1;
78063;PMS5003;67429;51.596;-3.264;2023-09-18T13:36:37;2;1;
78063;PMS5003;67429;51.596;-3.264;2023-09-18T13:39:04;2;2;
78063;PMS5003;67429;51.596;-3.264;2023-09-18T13:41:28;0;0;
78063;PMS5003;67429;51.596;-3.264;2023-09-18T13:43:55;2;2;
78063;PMS5003;67429;51.596;-3.264;2023-09-18T13:46:19;1;1;
78063;PMS5003;67429;51.596;-3.264;2023-09-18T13:48:45;2;2;
78063;PMS5003;67429;51.596;-3.264;2023-09-18T13:51:11;1;1;
78063;PMS5003;67429;51.596;-3.264;2023-09-18T13:53:36;0;0;
78063;PMS5003;67429;51.596;-3.264;2023-09-18T13:56:01;1;1;
78063;PMS5003;67429;51.596;-3.264;2023-09-18T13:58:27;1;1;
78063;PMS5003;67429;51.596;-3.264;2023-09-18T14:00:54;1;1;
78063;PMS5003;67429;51.596;-3.264;2023-09-18T14:03:19;2;2;
78063;PMS5003;67429;51.596;-3.264;2023-09-18T14:05:43;1;1;
78063;PMS5003;67429;51.596;-3.264;2023-09-18T14:08:09;1;0;
78063;PMS5003;67429;51.596;-3.264;2023-09-18T14:10:34;1;1;
78063;PMS5003;67429;51.596;-3.264;2023-09-18T14:13:00;3;3;
78063;PMS5003;67429;51.596;-3.264;2023-09-18T14:15:27;3;2;
78063;PMS5003;67429;51.596;-3.264;2023-09-18T14:17:51;4;4;
78063;PMS5003;67429;51.596;-3.264;2023-09-18T14:20:16;1;1;
78063;PMS5003;67429;51.596;-3.264;2023-09-18T14:22:42;2;2;
78063;PMS5003;67429;51.596;-3.264;2023-09-18T14:25:08;3;2;
78063;PMS5003;67429;51.596;-3.264;2023-09-18T14:27:33;2;2;
78063;PMS5003;67429;51.596;-3.264;2023-09-18T14:29:59;4;2;
78063;PMS5003;67429;51.596;-3.264;2023-09-18T14:32:24;1;1;
78063;PMS5003;67429;51.596;-3.264;2023-09-18T14:34:49;2;1;
78063;PMS5003;67429;51.596;-3.264;2023-09-18T14:37:15;2;1;
78063;PMS5003;67429;51.596;-3.264;2023-09-18T14:39:40;2;1;
78063;PMS5003;67429;51.596;-3.264;2023-09-18T14:42:06;1;1;
78063;PMS5003;67429;51.596;-3.264;2023-09-18T14:44:31;3;2;
78063;PMS5003;67429;51.596;-3.264;2023-09-18T14:46:57;3;3;
78063;PMS5003;67429;51.596;-3.264;2023-09-18T14:49:22;3;2;
78063;PMS5003;67429;51.596;-3.264;2023-09-18T14:51:48;2;2;
78063;PMS5003;67429;51.596;-3.264;2023-09-18T14:54:13;1;1;
78063;PMS5003;67429;51.596;-3.264;2023-09-18T14:56:39;2;2;
78063;PMS5003;67429;51.596;-3.264;2023-09-18T14:59:05;2;2;
78063;PMS5003;67429;51.596;-3.264;2023-09-18T15:01:30;2;1;
78063;PMS5003;67429;51.596;-3.264;2023-09-18T15:03:55;3;3;
78063;PMS5003;67429;51.596;-3.264;2023-09-18T15:06:22;2;2;
78063;PMS5003;67429;51.596;-3.264;2023-09-18T15:08:46;3;2;
78063;PMS5003;67429;51.596;-3.264;2023-09-18T15:11:13;2;2;
78063;PMS5003;67429;51.596;-3.264;2023-09-18T15:13:37;2;2;
78063;PMS5003;67429;51.596;-3.264;2023-09-18T15:16:02;1;1;
78063;PMS5003;67429;51.596;-3.264;2023-09-18T15:18:28;3;3;
78063;PMS5003;67429;51.596;-3.264;2023-09-18T15:20:53;4;3;
78063;PMS5003;67429;51.596;-3.264;2023-09-18T15:23:20;2;2;
78063;PMS5003;67429;51.596;-3.264;2023-09-18T15:25:44;4;4;
78063;PMS5003;67429;51.596;-3.264;2023-09-18T15:28:11;3;3;
78063;PMS5003;67429;51.596;-3.264;2023-09-18T15:30:35;5;3;
78063;PMS5003;67429;51.596;-3.264;2023-09-18T15:33:01;2;2;
78063;PMS5003;67429;51.596;-3.264;2023-09-18T15:35:26;1;1;
78063;PMS5003;67429;51.596;-3.264;2023-09-18T15:37:52;1;1;
78063;PMS5003;67429;51.596;-3.264;2023-09-18T15:40:19;2;2;
78063;PMS5003;67429;51.596;-3.264;2023-09-18T15:42:44;2;1;
78063;PMS5003;67429;51.596;-3.264;2023-09-18T15:45:09;2;2;
78063;PMS5003;67429;51.596;-3.264;2023-09-18T15:47:34;1;1;
78063;PMS5003;67429;51.596;-3.264;2023-09-18T15:50:00;1;1;
78063;PMS5003;67429;51.596;-3.264;2023-09-18T15:52:25;3;3;
78063;PMS5003;67429;51.596;-3.264;2023-09-18T15:54:50;3;2;
78063;PMS5003;67429;51.596;-3.264;2023-09-18T15:57:16;0;0;
78063;PMS5003;67429;51.596;-3.264;2023-09-18T15:59:41;3;2;
78063;PMS5003;67429;51.596;-3.264;2023-09-18T16:02:07;3;3;
78063;PMS5003;67429;51.596;-3.264;2023-09-18T16:04:32;4;2;
78063;PMS5003;67429;51.596;-3.264;2023-09-18T16:06:58;3;3;
78063;PMS5003;67429;51.596;-3.264;2023-09-18T16:09:23;2;2;
78063;PMS5003;67429;51.596;-3.264;2023-09-18T16:11:49;5;5;
78063;PMS5003;67429;51.596;-3.264;2023-09-18T16:14:14;3;2;
78063;PMS5003;67429;51.596;-3.264;2023-09-18T16:16:40;5;2;
78063;PMS5003;67429;51.596;-3.264;2023-09-18T16:19:07;2;2;
78063;PMS5003;67429;51.596;-3.264;2023-09-18T16:21:31;4;2;
78063;PMS5003;67429;51.596;-3.264;2023-09-18T16:23:57;2;2;
78063;PMS5003;67429;51.596;-3.264;2023-09-18T16:26:22;2;2;
78063;PMS5003;67429;51.596;-3.264;2023-09-18T16:28:48;2;2;
78063;PMS5003;67429;51.596;-3.264;2023-09-18T16:31:13;2;2;
78063;PMS5003;67429;51.596;-3.264;2023-09-18T16:33:39;3;2;
78063;PMS5003;67429;51.596;-3.264;2023-09-18T16:36:04;3;2;
78063;PMS5003;67429;51.596;-3.264;2023-09-18T16:38:30;3;3;